Time;durP1;ratioP1;P1;durP2;ratioP2;P2;SDS_P1;SDS_P2;PMS_P1;PMS_P2;Temp;Humidity;BMP_temperature;BMP_pressure;BME280_temperature;BME280_humidity;BME280_pressure;Samples;Min_cycle;Max_cycle;Signal;HPM_P1;HPM_P2
2022/06/27 07:59:10;;;;;;;11.60;9.60;;;;;;;18.92;76.26;101388.75;5279426;28;20395;-68
2022/06/27 08:01:42;;;;;;;9.90;8.82;;;;;;;18.93;75.43;101396.00;5262259;28;20069;-68
2022/06/27 08:04:14;;;;;;;10.23;7.85;;;;;;;19.01;75.87;101406.41;5259231;28;20060;-68
2022/06/27 08:06:49;;;;;;;9.70;8.07;;;;;;;19.04;75.31;101391.69;5259002;28;20037;-68
2022/06/27 08:09:21;;;;;;;9.85;8.25;;;;;;;19.11;75.33;101394.81;5274429;28;20083;-70
2022/06/27 08:11:53;;;;;;;13.35;8.18;;;;;;;19.25;75.17;101405.03;5279262;28;20051;-69
2022/06/27 08:14:25;;;;;;;11.85;8.48;;;;;;;19.26;74.23;101404.69;5275771;28;20437;-67
2022/06/27 08:16:57;;;;;;;10.50;7.50;;;;;;;19.28;73.50;101393.94;5259202;28;20079;-68
2022/06/27 08:19:29;;;;;;;10.27;8.35;;;;;;;19.30;73.77;101386.00;5259020;28;20468;-68
2022/06/27 08:22:01;;;;;;;14.25;8.77;;;;;;;19.32;73.54;101389.28;5259288;28;20028;-68
2022/06/27 08:24:32;;;;;;;8.63;7.72;;;;;;;19.33;72.90;101390.94;5259134;28;20071;-69
2022/06/27 08:27:04;;;;;;;9.23;7.57;;;;;;;19.36;72.94;101399.88;5278828;28;20079;-68
2022/06/27 08:29:36;;;;;;;8.57;7.68;;;;;;;19.39;72.45;101419.72;5279291;28;20032;-67
2022/06/27 08:32:07;;;;;;;9.82;7.82;;;;;;;19.38;72.68;101425.66;5279878;28;20500;-68
2022/06/27 08:34:39;;;;;;;9.05;8.02;;;;;;;19.43;73.45;101423.50;5277994;28;20029;-68
2022/06/27 08:37:11;;;;;;;10.35;9.00;;;;;;;19.41;72.44;101425.00;5279683;28;20017;-68
2022/06/27 08:39:42;;;;;;;9.88;8.98;;;;;;;19.42;72.46;101423.84;5279476;28;20021;-70
2022/06/27 08:42:14;;;;;;;9.35;8.38;;;;;;;19.40;73.26;101426.97;5272994;28;20025;-68
2022/06/27 08:44:45;;;;;;;10.85;8.85;;;;;;;19.43;72.97;101428.28;5258345;28;20121;-69
2022/06/27 08:47:17;;;;;;;9.65;8.75;;;;;;;19.39;72.90;101422.53;5257847;28;20120;-68
2022/06/27 08:49:51;;;;;;;10.35;8.90;;;;;;;19.42;72.27;101421.84;5258637;28;20017;-67
2022/06/27 08:52:24;;;;;;;10.93;9.13;;;;;;;19.44;73.07;101422.34;5258993;28;20166;-67
2022/06/27 08:54:56;;;;;;;12.75;8.73;;;;;;;19.50;73.20;101425.78;5257484;28;20039;-67
2022/06/27 08:57:28;;;;;;;9.70;8.70;;;;;;;19.51;72.99;101425.47;5258000;28;20053;-67
2022/06/27 09:00:04;;;;;;;9.45;8.48;;;;;;;19.57;72.26;101423.28;5258633;28;20083;-68
2022/06/27 09:02:41;;;;;;;10.48;8.88;;;;;;;19.60;72.58;101442.31;5257795;28;20095;-69
2022/06/27 09:05:22;;;;;;;11.55;9.20;;;;;;;19.55;72.48;101448.94;5257962;28;20035;-68
2022/06/27 09:07:59;;;;;;;9.93;9.02;;;;;;;19.63;71.45;101452.88;5258248;28;20067;-68
2022/06/27 09:10:33;;;;;;;12.43;9.82;;;;;;;19.65;71.68;101446.91;5244844;28;20105;-69
2022/06/27 09:13:11;;;;;;;16.35;11.15;;;;;;;19.78;71.60;101451.53;5244164;28;20104;-69
2022/06/27 09:15:49;;;;;;;15.73;14.20;;;;;;;19.64;71.11;101446.09;5244966;28;20029;-68
2022/06/27 09:18:26;;;;;;;12.15;9.45;;;;;;;19.68;71.47;101424.59;5264950;28;20025;-68
2022/06/27 09:21:05;;;;;;;10.20;9.20;;;;;;;19.85;71.44;101426.50;5264775;28;20357;-69
2022/06/27 09:23:47;;;;;;;9.68;8.68;;;;;;;19.91;70.91;101427.94;5264117;28;20342;-69
2022/06/27 09:26:25;;;;;;;10.25;9.07;;;;;;;19.93;69.81;101442.50;5263856;28;20043;-70
2022/06/27 09:29:03;;;;;;;11.32;9.40;;;;;;;19.91;70.68;101438.38;5264643;28;20064;-68
2022/06/27 09:31:42;;;;;;;9.00;8.02;;;;;;;20.01;69.67;101440.81;5264844;28;20099;-68
2022/06/27 09:34:18;;;;;;;11.82;8.60;;;;;;;20.06;70.39;101435.00;5250412;28;20595;-68
2022/06/27 09:36:58;;;;;;;10.68;9.57;;;;;;;20.11;69.77;101442.44;5243102;28;20025;-68
2022/06/27 09:39:31;;;;;;;9.05;8.25;;;;;;;20.11;68.99;101433.97;5243650;28;20428;-68
2022/06/27 09:42:11;;;;;;;9.75;8.60;;;;;;;20.18;68.48;101437.09;5243789;28;20422;-68
2022/06/27 09:44:44;;;;;;;10.38;9.32;;;;;;;20.22;68.67;101435.22;5243625;28;20464;-69
2022/06/27 09:47:20;;;;;;;9.90;8.57;;;;;;;20.27;68.32;101432.22;5243591;28;20033;-68
2022/06/27 09:49:56;;;;;;;14.60;9.32;;;;;;;20.24;67.89;101432.91;5244160;28;20468;-67
2022/06/27 09:52:27;;;;;;;14.60;8.07;;;;;;;20.30;67.89;101431.56;5242971;28;20094;-67
2022/06/27 09:55:03;;;;;;;15.57;10.95;;;;;;;20.38;67.50;101430.66;5244923;28;20025;-66
2022/06/27 09:57:35;;;;;;;8.48;7.60;;;;;;;20.38;65.32;101436.28;5263098;28;20045;-69
2022/06/27 10:00:08;;;;;;;8.57;7.00;;;;;;;20.43;65.07;101426.81;5263154;28;20468;-68
2022/06/27 10:02:40;;;;;;;14.77;7.55;;;;;;;20.46;65.80;101428.13;5264299;28;20096;-68
2022/06/27 10:05:11;;;;;;;9.57;6.90;;;;;;;20.50;66.75;101418.63;5263331;28;20162;-68
2022/06/27 10:07:57;;;;;;;9.60;8.15;;;;;;;20.60;66.88;101426.69;5253764;28;20100;-69
2022/06/27 10:10:30;;;;;;;11.27;7.03;;;;;;;20.55;66.39;101412.81;5243822;28;20029;-68
2022/06/27 10:13:03;;;;;;;10.07;6.82;;;;;;;20.65;65.65;101411.56;5246859;28;20053;-68
2022/06/27 10:15:38;;;;;;;8.95;6.90;;;;;;;20.73;65.61;101407.84;5242611;28;20028;-69
2022/06/27 10:18:09;;;;;;;9.60;6.93;;;;;;;20.83;64.52;101406.59;5243313;28;20120;-66
2022/06/27 10:20:47;;;;;;;7.93;5.78;;;;;;;20.80;63.06;101413.75;5245222;28;20504;-66
2022/06/27 10:23:26;;;;;;;9.73;8.30;;;;;;;20.83;64.07;101407.41;5263077;28;20032;-65
2022/06/27 10:25:57;;;;;;;8.82;6.50;;;;;;;20.85;64.21;101407.91;5261548;28;20024;-66
2022/06/27 10:28:41;;;;;;;8.38;6.47;;;;;;;20.77;63.14;101406.00;5263423;28;20024;-66
2022/06/27 10:31:17;;;;;;;7.45;6.38;;;;;;;20.80;63.48;101412.94;5247890;28;20029;-66
2022/06/27 10:33:50;;;;;;;7.13;5.63;;;;;;;20.87;63.04;101418.03;5242263;28;20029;-67
2022/06/27 10:36:22;;;;;;;6.32;5.20;;;;;;;20.82;62.01;101416.25;5242618;28;20104;-67
2022/06/27 10:38:55;;;;;;;9.27;4.63;;;;;;;20.87;62.08;101418.03;5246454;28;20418;-66
2022/06/27 10:41:27;;;;;;;14.40;5.55;;;;;;;20.89;62.65;101421.31;5254517;28;20405;-66
2022/06/27 10:44:03;;;;;;;8.38;5.00;;;;;;;20.78;62.73;101421.72;5255181;28;20123;-66
2022/06/27 10:46:37;;;;;;;5.43;4.40;;;;;;;20.85;62.34;101427.63;5262438;28;20504;-66
2022/06/27 10:49:19;;;;;;;6.60;3.88;;;;;;;20.81;61.96;101421.06;5262844;28;20108;-66
2022/06/27 10:51:51;;;;;;;5.28;3.25;;;;;;;20.80;60.61;101422.22;5261715;28;20025;-67
2022/06/27 10:54:36;;;;;;;6.68;4.18;;;;;;;20.84;61.57;101425.19;5262143;28;20460;-67
2022/06/27 10:57:07;;;;;;;6.35;4.70;;;;;;;20.82;61.93;101425.53;5262249;28;20055;-66
2022/06/27 10:59:41;;;;;;;7.10;4.18;;;;;;;20.91;62.09;101413.34;5248114;28;20030;-68
2022/06/27 11:02:17;;;;;;;7.70;4.68;;;;;;;20.85;62.24;101424.81;5256659;28;20029;-67
2022/06/27 11:04:48;;;;;;;7.28;4.15;;;;;;;20.81;61.11;101421.06;5258637;28;20101;-67
2022/06/27 11:07:21;;;;;;;8.95;4.25;;;;;;;20.94;61.70;101424.75;5249106;28;20560;-67
2022/06/27 11:09:53;;;;;;;6.32;3.90;;;;;;;20.98;61.12;101420.06;5254536;28;20044;-66
2022/06/27 11:12:29;;;;;;;5.95;4.00;;;;;;;21.04;61.14;101426.31;5246399;28;20021;-69
2022/06/27 11:15:01;;;;;;;5.57;4.18;;;;;;;20.95;60.49;101425.56;5250716;28;20445;-69
2022/06/27 11:17:40;;;;;;;7.75;4.35;;;;;;;21.00;60.89;101429.00;5250318;28;20119;-70
2022/06/27 11:20:26;;;;;;;4.35;3.78;;;;;;;20.97;60.74;101424.06;5262292;28;20036;-69
2022/06/27 11:22:58;;;;;;;;;;;;;;;21.11;61.68;101440.66;5261506;28;20057;-73
2022/06/27 11:25:30;;;;;;;8.98;4.07;;;;;;;20.98;61.73;101441.78;5261616;28;20259;-73
2022/06/27 11:33:47;;;;;;;9.63;5.70;;;;;;;20.95;61.88;101442.50;5247186;28;20037;-71
2022/06/27 11:36:18;;;;;;;10.05;5.82;;;;;;;20.88;62.63;101437.41;5246424;28;20543;-73
2022/06/27 11:38:51;;;;;;;9.88;6.00;;;;;;;20.92;62.26;101420.63;5241322;28;20120;-74
2022/06/27 11:41:27;;;;;;;6.05;5.05;;;;;;;20.97;62.82;101418.41;5254156;28;20469;-70
2022/06/27 11:44:04;;;;;;;9.93;5.80;;;;;;;20.94;62.63;101427.56;5253901;28;20041;-67
2022/06/27 11:46:45;;;;;;;7.75;5.22;;;;;;;20.99;62.75;101444.28;5254147;28;20013;-67
2022/06/27 11:49:34;;;;;;;7.75;5.53;;;;;;;21.09;64.30;101448.66;5243231;28;20026;-67
2022/06/27 11:52:09;;;;;;;6.18;5.45;;;;;;;21.07;64.55;101448.19;5240299;28;20106;-67
2022/06/27 11:54:41;;;;;;;9.88;6.10;;;;;;;21.10;64.60;101447.50;5245737;28;20029;-67
2022/06/27 11:57:33;;;;;;;6.97;5.38;;;;;;;20.92;64.36;101431.91;5261136;28;20041;-68
2022/06/27 12:00:06;;;;;;;6.45;5.03;;;;;;;20.78;63.87;101421.72;5253847;28;20049;-67
2022/06/27 12:02:38;;;;;;;13.77;11.35;;;;;;;20.67;64.44;101428.16;5259985;28;20021;-67
2022/06/27 12:05:16;;;;;;;20.30;17.23;;;;;;;19.20;73.51;101445.41;5259159;28;20032;-67
2022/06/27 12:07:55;;;;;;;8.20;6.40;;;;;;;19.27;75.78;101453.31;5242672;28;20018;-68
2022/06/27 12:10:35;;;;;;;6.80;6.00;;;;;;;19.09;76.54;101453.34;5241228;28;20029;-68
2022/06/27 12:13:10;;;;;;;5.72;5.22;;;;;;;18.64;78.54;101453.69;5240065;28;20385;-67
2022/06/27 12:15:44;;;;;;;9.10;5.90;;;;;;;18.21;81.95;101459.25;5254056;28;20112;-68
2022/06/27 12:18:15;;;;;;;7.38;5.82;;;;;;;18.09;85.55;101467.47;5260749;28;20036;-67
2022/06/27 12:20:48;;;;;;;7.88;6.10;;;;;;;18.27;85.71;101465.53;5261763;28;20104;-68
2022/06/27 12:23:19;;;;;;;7.22;5.53;;;;;;;18.05;83.82;101475.72;5254957;28;20029;-68
2022/06/27 12:25:50;;;;;;;6.57;5.80;;;;;;;18.03;82.41;101480.81;5240954;28;20022;-68
2022/06/27 12:28:22;;;;;;;6.45;4.00;;;;;;;17.92;81.54;101480.28;5254663;28;20033;-68
2022/06/27 12:30:53;;;;;;;6.43;4.32;;;;;;;17.89;81.30;101471.66;5240269;28;20372;-68
2022/06/27 12:33:25;;;;;;;7.78;3.60;;;;;;;18.13;83.37;101476.88;5255376;28;20406;-69
2022/06/27 12:35:56;;;;;;;5.18;3.78;;;;;;;18.14;81.73;101470.13;5240924;28;20373;-69
2022/06/27 12:38:27;;;;;;;5.60;3.85;;;;;;;17.96;82.65;101477.66;5240561;28;20034;-68
2022/06/27 12:41:32;;;;;;;7.80;3.90;;;;;;;17.86;83.08;101492.78;5251432;28;20025;-69
2022/06/27 12:43:59;;;;;;;5.97;3.70;;;;;;;17.58;82.33;101498.56;5260840;28;20033;-69
2022/06/27 12:46:31;;;;;;;8.55;4.00;;;;;;;17.75;81.41;101528.69;5264761;28;20024;-67
2022/06/27 12:49:02;;;;;;;6.47;3.55;;;;;;;17.73;81.98;101545.00;5259333;28;20095;-69
2022/06/27 12:51:34;;;;;;;5.57;3.83;;;;;;;17.81;82.44;101561.09;5264516;28;20129;-68
2022/06/27 12:54:05;;;;;;;9.35;8.32;;;;;;;17.93;83.21;101582.13;5264524;28;20078;-68
2022/06/27 12:56:37;;;;;;;5.55;3.83;;;;;;;17.29;84.46;101585.94;5263652;28;20021;-68
2022/06/27 12:59:08;;;;;;;5.57;4.10;;;;;;;17.11;84.81;101586.94;5244197;28;20510;-67
2022/06/27 13:01:40;;;;;;;5.50;4.10;;;;;;;16.98;86.74;101587.81;5243630;28;20465;-68
2022/06/27 13:04:11;;;;;;;5.70;4.30;;;;;;;17.04;87.13;101580.94;5244249;28;20029;-67
2022/06/27 13:06:42;;;;;;;6.28;3.90;;;;;;;16.94;88.02;101599.63;5248189;28;20159;-68
2022/06/27 13:09:13;;;;;;;8.68;4.80;;;;;;;17.04;88.38;101595.78;5243098;28;20582;-68
2022/06/27 13:11:45;;;;;;;6.47;3.90;;;;;;;17.22;87.89;101599.56;5247122;28;20369;-67
2022/06/27 13:14:16;;;;;;;5.78;4.00;;;;;;;17.13;88.94;101598.69;5257857;28;20108;-68
2022/06/27 13:16:50;;;;;;;5.35;3.53;;;;;;;17.03;88.02;101613.75;5253078;28;20100;-67
2022/06/27 13:19:22;;;;;;;9.95;4.22;;;;;;;17.21;87.64;101620.34;5246249;28;20384;-66
2022/06/27 13:21:53;;;;;;;5.50;3.42;;;;;;;17.26;87.52;101637.03;5249770;28;20037;-66
2022/06/27 13:24:25;;;;;;;3.20;2.90;;;;;;;17.00;86.85;101636.81;5249701;28;20025;-66
2022/06/27 13:26:56;;;;;;;4.45;3.10;;;;;;;17.13;85.94;101626.72;5245550;28;20024;-69
2022/06/27 13:29:28;;;;;;;34.75;31.30;;;;;;;17.07;83.63;101631.56;5252696;28;20025;-66
2022/06/27 13:31:59;;;;;;;4.80;2.63;;;;;;;17.14;83.46;101625.56;5244170;28;20021;-66
2022/06/27 13:34:31;;;;;;;4.63;2.42;;;;;;;17.08;83.15;101632.44;5258989;28;20021;-67
2022/06/27 13:37:02;;;;;;;4.80;2.67;;;;;;;16.90;83.34;101635.06;5249575;28;20032;-66
2022/06/27 13:39:33;;;;;;;3.92;2.63;;;;;;;17.12;85.65;101644.66;5243191;28;20043;-67
2022/06/27 13:42:06;;;;;;;3.75;2.63;;;;;;;17.25;85.72;101643.78;5243975;28;20419;-66
2022/06/27 13:44:37;;;;;;;14.95;13.63;;;;;;;16.96;83.49;101641.38;5242500;28;20026;-66
2022/06/27 13:47:08;;;;;;;78.55;71.07;;;;;;;17.00;85.67;101635.94;5262447;28;20554;-67
2022/06/27 13:49:40;;;;;;;5.70;3.35;;;;;;;17.03;85.58;101652.16;5244844;28;20472;-66
2022/06/27 13:52:11;;;;;;;3.88;3.13;;;;;;;17.29;84.87;101655.22;5243391;28;20053;-69
2022/06/27 13:54:43;;;;;;;6.20;2.47;;;;;;;17.27;83.96;101672.34;5243069;28;20087;-67
2022/06/27 13:57:14;;;;;;;3.95;3.20;;;;;;;17.14;83.97;101660.00;5242358;28;20048;-68
2022/06/27 13:59:46;;;;;;;3.95;3.08;;;;;;;17.23;84.80;101668.53;5256490;28;20021;-68
2022/06/27 14:02:17;;;;;;;4.18;2.60;;;;;;;17.14;85.03;101664.78;5242854;28;20029;-68
2022/06/27 14:04:48;;;;;;;4.75;3.15;;;;;;;17.24;85.18;101674.94;5244606;28;20460;-68
2022/06/27 14:10:15;;;;;;;3.75;2.97;;;;;;;17.37;85.83;101682.50;5261451;28;20025;-66
2022/06/27 14:12:48;;;;;;;4.22;3.08;;;;;;;17.61;84.92;101687.81;5262935;28;20083;-68
2022/06/27 14:15:20;;;;;;;3.53;2.78;;;;;;;17.42;85.96;101687.97;5262910;28;20108;-68
2022/06/27 14:17:52;;;;;;;4.00;3.35;;;;;;;17.58;85.89;101686.47;5262986;28;20468;-68
2022/06/27 14:20:23;;;;;;;3.17;2.78;;;;;;;17.35;85.61;101685.59;5263608;28;20086;-67
2022/06/27 14:22:55;;;;;;;5.90;3.22;;;;;;;16.99;84.71;101690.34;5260726;28;20549;-67
2022/06/27 14:25:27;;;;;;;4.43;3.55;;;;;;;17.08;87.63;101677.28;5262689;28;20079;-68
2022/06/27 14:27:59;;;;;;;5.63;3.30;;;;;;;17.26;87.50;101665.09;5263394;28;20029;-67
2022/06/27 14:30:30;;;;;;;5.82;3.65;;;;;;;17.21;88.69;101658.75;5259736;28;20096;-68
2022/06/27 14:33:01;;;;;;;4.45;3.60;;;;;;;17.19;88.23;101652.63;5260241;28;20025;-67
2022/06/27 14:35:33;;;;;;;3.80;3.22;;;;;;;17.27;87.70;101643.47;5265559;28;20013;-67
2022/06/27 14:38:07;;;;;;;5.57;3.38;;;;;;;17.04;86.19;101631.38;5250102;28;20057;-66
2022/06/27 14:40:38;;;;;;;7.00;3.13;;;;;;;17.11;86.49;101621.41;5257431;28;20116;-68
2022/06/27 14:43:09;;;;;;;4.00;3.03;;;;;;;17.17;86.63;101630.53;5263446;28;20528;-67
2022/06/27 14:45:41;;;;;;;6.25;3.13;;;;;;;17.22;85.12;101627.59;5262191;28;20021;-68
2022/06/27 14:48:12;;;;;;;4.85;3.42;;;;;;;17.20;86.60;101632.69;5263241;28;20032;-67
2022/06/27 14:50:43;;;;;;;8.80;7.43;;;;;;;17.02;86.23;101639.28;5243489;28;20029;-67
2022/06/27 14:53:15;;;;;;;5.40;3.05;;;;;;;17.26;84.13;101639.03;5248158;28;20096;-69
2022/06/27 14:55:46;;;;;;;13.40;11.68;;;;;;;17.32;85.08;101644.19;5249685;28;20048;-68
2022/06/27 14:58:18;;;;;;;4.32;3.10;;;;;;;17.39;84.60;101636.16;5241388;28;20480;-67
2022/06/27 15:00:50;;;;;;;4.95;2.80;;;;;;;17.47;84.27;101636.56;5250846;28;20526;-69
2022/06/27 15:03:21;;;;;;;4.75;3.20;;;;;;;17.43;84.08;101644.75;5245122;28;20037;-67
2022/06/27 15:05:52;;;;;;;4.57;2.83;;;;;;;17.27;83.12;101663.91;5242191;28;20025;-67
2022/06/27 15:08:24;;;;;;;4.65;3.10;;;;;;;17.36;83.63;101670.44;5243817;28;20037;-67
2022/06/27 15:13:52;;;;;;;4.15;2.78;;;;;;;17.12;83.99;101687.50;5232344;28;20037;-68
2022/06/27 15:16:26;;;;;;;4.00;2.83;;;;;;;17.11;83.12;101683.06;5241592;28;20484;-66
2022/06/27 15:18:57;;;;;;;6.20;3.50;;;;;;;17.31;85.86;101693.00;5252779;28;20067;-66
2022/06/27 15:21:28;;;;;;;3.65;3.28;;;;;;;17.46;84.83;101696.56;5241160;28;20021;-67
2022/06/27 15:24:00;;;;;;;5.18;2.95;;;;;;;17.47;82.32;101695.44;5241945;28;20480;-66
2022/06/27 15:26:31;;;;;;;8.75;7.88;;;;;;;17.69;82.46;101703.06;5257503;28;20020;-68
2022/06/27 15:29:04;;;;;;;6.80;3.00;;;;;;;17.35;81.63;101695.97;5261490;28;20070;-68
2022/06/27 15:31:36;;;;;;;4.72;3.30;;;;;;;17.76;82.70;101707.06;5259336;28;20508;-66
2022/06/27 15:34:07;;;;;;;7.13;5.55;;;;;;;17.72;81.75;101699.63;5262036;28;20021;-67
2022/06/27 15:36:39;;;;;;;5.53;3.72;;;;;;;17.82;81.66;101707.84;5261443;28;20464;-66
2022/06/27 15:39:10;;;;;;;4.72;2.65;;;;;;;17.83;79.56;101711.47;5241237;28;20033;-67
2022/06/27 15:41:42;;;;;;;4.55;2.67;;;;;;;18.22;79.86;101716.34;5241710;28;20538;-67
2022/06/27 15:44:13;;;;;;;7.93;3.85;;;;;;;17.91;78.06;101717.13;5240576;28;20391;-66
2022/06/27 15:46:44;;;;;;;4.00;3.00;;;;;;;18.15;79.92;101722.44;5241647;28;20037;-67
2022/06/27 15:49:16;;;;;;;3.53;2.97;;;;;;;17.79;79.24;101720.53;5260301;28;20036;-65
2022/06/27 15:51:47;;;;;;;6.05;3.20;;;;;;;18.23;80.32;101713.25;5259037;28;20132;-66
2022/06/27 15:54:19;;;;;;;5.63;3.22;;;;;;;18.14;76.23;101714.31;5246855;28;20031;-65
2022/06/27 15:56:53;;;;;;;6.18;3.47;;;;;;;18.34;75.34;101713.78;5257421;28;20430;-66
2022/06/27 15:59:24;;;;;;;4.53;2.67;;;;;;;18.55;75.56;101708.44;5241156;28;20465;-66
2022/06/27 16:01:56;;;;;;;5.45;2.55;;;;;;;18.54;73.33;101709.59;5240874;28;20091;-66
2022/06/27 16:04:27;;;;;;;5.32;2.55;;;;;;;18.63;74.63;101692.78;5240831;28;20060;-66
2022/06/27 16:06:59;;;;;;;6.10;3.30;;;;;;;18.48;72.43;101679.97;5253421;28;20048;-66
2022/06/27 16:09:30;;;;;;;5.10;2.78;;;;;;;18.62;72.62;101694.78;5261766;28;20028;-67
2022/06/27 16:12:02;;;;;;;4.82;2.53;;;;;;;18.51;73.43;101692.56;5260966;28;20086;-66
2022/06/27 16:14:34;;;;;;;6.40;2.83;;;;;;;18.59;72.13;101687.00;5251940;28;20112;-70
2022/06/27 16:17:05;;;;;;;5.28;2.83;;;;;;;18.59;70.44;101695.41;5249086;28;20112;-68
2022/06/27 16:19:37;;;;;;;4.70;2.95;;;;;;;18.93;70.53;101696.72;5262466;28;20029;-70
2022/06/27 16:22:08;;;;;;;5.68;2.90;;;;;;;18.97;68.33;101703.38;5251816;28;20029;-69
2022/06/27 16:24:39;;;;;;;7.28;3.67;;;;;;;19.11;67.17;101698.44;5255088;28;20060;-69
2022/06/27 16:27:11;;;;;;;4.35;3.03;;;;;;;19.24;67.56;101696.63;5258279;28;20104;-71
2022/06/27 16:29:42;;;;;;;4.80;2.83;;;;;;;19.47;67.56;101705.75;5245033;28;20026;-69
2022/06/27 16:32:13;;;;;;;5.95;3.22;;;;;;;19.62;67.60;101706.44;5244796;28;20083;-70
2022/06/27 16:34:44;;;;;;;4.28;3.05;;;;;;;19.62;67.09;101709.25;5245146;28;20131;-68
2022/06/27 16:37:16;;;;;;;3.97;2.40;;;;;;;19.71;65.89;101710.97;5244873;28;20036;-68
2022/06/27 16:39:47;;;;;;;4.13;2.20;;;;;;;19.79;66.15;101716.91;5262793;28;20028;-67
2022/06/27 16:45:09;;;;;;;4.38;2.90;;;;;;;20.12;64.38;101712.41;5249247;28;20050;-69
2022/06/27 16:47:40;;;;;;;3.55;1.90;;;;;;;20.00;64.44;101728.34;5261142;28;20024;-69
2022/06/27 16:50:12;;;;;;;3.83;2.40;;;;;;;20.45;64.34;101725.09;5250898;28;20076;-70
2022/06/27 16:52:43;;;;;;;6.10;2.45;;;;;;;20.48;64.31;101727.22;5245892;28;20055;-69
2022/06/27 16:55:15;;;;;;;3.67;1.75;;;;;;;20.34;62.51;101728.25;5250792;28;20081;-69
2022/06/27 16:57:46;;;;;;;4.95;2.15;;;;;;;20.63;62.37;101719.09;5244363;28;20049;-66
2022/06/27 17:00:18;;;;;;;4.07;1.90;;;;;;;20.45;60.48;101727.91;5248380;28;20029;-66
2022/06/27 17:02:49;;;;;;;5.47;1.75;;;;;;;20.23;61.17;101724.16;5258629;28;20374;-67
2022/06/27 17:05:20;;;;;;;4.55;1.90;;;;;;;20.00;62.25;101729.16;5247728;28;20104;-67
2022/06/27 17:07:52;;;;;;;7.82;2.25;;;;;;;20.01;62.11;101730.78;5252810;28;20025;-69
2022/06/27 17:10:24;;;;;;;2.85;1.42;;;;;;;19.55;61.52;101724.63;5257860;28;20496;-71
2022/06/27 17:12:55;;;;;;;5.07;2.28;;;;;;;19.65;62.66;101731.94;5250110;28;20447;-69
2022/06/27 17:15:27;;;;;;;2.60;1.30;;;;;;;19.81;62.47;101723.84;5256353;28;20031;-69
2022/06/27 17:17:58;;;;;;;3.20;2.08;;;;;;;19.82;61.92;101735.94;5255583;28;20550;-69
2022/06/27 17:20:30;;;;;;;2.08;1.65;;;;;;;19.98;60.71;101732.28;5263041;28;20025;-69
2022/06/27 17:23:03;;;;;;;2.80;1.50;;;;;;;20.24;60.35;101724.97;5252573;28;20049;-69
2022/06/27 17:25:35;;;;;;;6.28;1.95;;;;;;;20.37;61.13;101716.31;5243918;28;20036;-69
2022/06/27 17:28:06;;;;;;;3.33;1.70;;;;;;;20.31;60.04;101728.13;5244161;28;20026;-69
